sensor_id;sensor_type;location;lat;lon;timestamp;P1;durP1;ratioP1;P2;durP2;ratioP2
4517;SDS011;2271;49.464;11.070;2024-02-16T00:00:05;5.20;;;3.50;;
4517;SDS011;2271;49.464;11.070;2024-02-16T00:02:32;5.47;;;3.60;;
4517;SDS011;2271;49.464;11.070;2024-02-16T00:04:57;7.53;;;3.10;;
4517;SDS011;2271;49.464;11.070;2024-02-16T00:07:24;7.37;;;3.30;;
4517;SDS011;2271;49.464;11.070;2024-02-16T00:09:49;4.37;;;3.00;;
4517;SDS011;2271;49.464;11.070;2024-02-16T00:12:15;5.00;;;3.20;;
4517;SDS011;2271;49.464;11.070;2024-02-16T00:14:41;4.70;;;3.40;;
4517;SDS011;2271;49.464;11.070;2024-02-16T00:17:07;5.23;;;3.30;;
4517;SDS011;2271;49.464;11.070;2024-02-16T00:19:35;4.17;;;3.13;;
4517;SDS011;2271;49.464;11.070;2024-02-16T00:22:01;4.67;;;2.77;;
4517;SDS011;2271;49.464;11.070;2024-02-16T00:24:27;3.27;;;2.77;;
4517;SDS011;2271;49.464;11.070;2024-02-16T00:26:52;3.83;;;2.77;;
4517;SDS011;2271;49.464;11.070;2024-02-16T00:29:18;6.00;;;3.30;;
4517;SDS011;2271;49.464;11.070;2024-02-16T00:31:44;3.50;;;3.20;;
4517;SDS011;2271;49.464;11.070;2024-02-16T00:34:10;3.67;;;2.70;;
4517;SDS011;2271;49.464;11.070;2024-02-16T00:36:35;2.93;;;2.60;;
4517;SDS011;2271;49.464;11.070;2024-02-16T00:39:01;5.70;;;2.20;;
4517;SDS011;2271;49.464;11.070;2024-02-16T00:41:28;5.43;;;2.80;;
4517;SDS011;2271;49.464;11.070;2024-02-16T00:43:54;3.93;;;2.90;;
4517;SDS011;2271;49.464;11.070;2024-02-16T00:46:21;3.90;;;2.77;;
4517;SDS011;2271;49.464;11.070;2024-02-16T00:48:48;3.10;;;2.60;;
4517;SDS011;2271;49.464;11.070;2024-02-16T00:51:15;3.83;;;2.90;;
4517;SDS011;2271;49.464;11.070;2024-02-16T00:53:40;5.13;;;2.47;;
4517;SDS011;2271;49.464;11.070;2024-02-16T00:56:06;3.13;;;2.57;;
4517;SDS011;2271;49.464;11.070;2024-02-16T00:58:32;4.13;;;2.43;;
4517;SDS011;2271;49.464;11.070;2024-02-16T01:00:58;4.30;;;2.40;;
4517;SDS011;2271;49.464;11.070;2024-02-16T01:03:23;5.57;;;2.77;;
4517;SDS011;2271;49.464;11.070;2024-02-16T01:05:51;2.67;;;2.17;;
4517;SDS011;2271;49.464;11.070;2024-02-16T01:08:17;8.33;;;2.87;;
4517;SDS011;2271;49.464;11.070;2024-02-16T01:10:43;3.50;;;2.77;;
4517;SDS011;2271;49.464;11.070;2024-02-16T01:13:08;2.70;;;2.50;;
4517;SDS011;2271;49.464;11.070;2024-02-16T01:15:35;6.47;;;3.07;;
4517;SDS011;2271;49.464;11.070;2024-02-16T01:18:02;3.50;;;2.93;;
4517;SDS011;2271;49.464;11.070;2024-02-16T01:20:28;3.27;;;2.60;;
4517;SDS011;2271;49.464;11.070;2024-02-16T01:22:56;5.17;;;2.50;;
4517;SDS011;2271;49.464;11.070;2024-02-16T01:25:22;8.50;;;3.17;;
4517;SDS011;2271;49.464;11.070;2024-02-16T01:27:47;3.67;;;3.00;;
4517;SDS011;2271;49.464;11.070;2024-02-16T01:30:13;6.40;;;4.00;;
4517;SDS011;2271;49.464;11.070;2024-02-16T01:32:40;7.07;;;4.17;;
4517;SDS011;2271;49.464;11.070;2024-02-16T01:35:06;6.23;;;3.87;;
4517;SDS011;2271;49.464;11.070;2024-02-16T01:37:32;6.10;;;3.97;;
4517;SDS011;2271;49.464;11.070;2024-02-16T01:39:57;7.70;;;3.77;;
4517;SDS011;2271;49.464;11.070;2024-02-16T01:42:23;5.07;;;3.63;;
4517;SDS011;2271;49.464;11.070;2024-02-16T01:44:49;5.93;;;3.93;;
4517;SDS011;2271;49.464;11.070;2024-02-16T01:47:16;4.90;;;3.30;;
4517;SDS011;2271;49.464;11.070;2024-02-16T01:49:44;5.30;;;3.37;;
4517;SDS011;2271;49.464;11.070;2024-02-16T01:52:10;3.73;;;3.43;;
4517;SDS011;2271;49.464;11.070;2024-02-16T01:54:37;7.57;;;4.27;;
4517;SDS011;2271;49.464;11.070;2024-02-16T01:57:04;5.93;;;3.83;;
4517;SDS011;2271;49.464;11.070;2024-02-16T01:59:30;6.43;;;3.30;;
4517;SDS011;2271;49.464;11.070;2024-02-16T02:01:58;6.57;;;4.13;;
4517;SDS011;2271;49.464;11.070;2024-02-16T02:04:24;4.73;;;4.03;;
4517;SDS011;2271;49.464;11.070;2024-02-16T02:06:51;6.67;;;3.70;;
4517;SDS011;2271;49.464;11.070;2024-02-16T02:09:16;4.97;;;3.40;;
4517;SDS011;2271;49.464;11.070;2024-02-16T02:11:42;4.50;;;3.43;;
4517;SDS011;2271;49.464;11.070;2024-02-16T02:14:08;4.07;;;3.47;;
4517;SDS011;2271;49.464;11.070;2024-02-16T02:16:34;4.87;;;3.07;;
4517;SDS011;2271;49.464;11.070;2024-02-16T02:18:59;4.80;;;3.53;;
4517;SDS011;2271;49.464;11.070;2024-02-16T02:21:25;4.37;;;3.33;;
4517;SDS011;2271;49.464;11.070;2024-02-16T02:23:50;5.07;;;2.73;;
4517;SDS011;2271;49.464;11.070;2024-02-16T02:26:16;3.47;;;2.77;;
4517;SDS011;2271;49.464;11.070;2024-02-16T02:28:42;3.97;;;2.63;;
4517;SDS011;2271;49.464;11.070;2024-02-16T02:31:08;4.57;;;2.57;;
4517;SDS011;2271;49.464;11.070;2024-02-16T02:33:34;5.53;;;2.90;;
4517;SDS011;2271;49.464;11.070;2024-02-16T02:36:00;5.33;;;3.00;;
4517;SDS011;2271;49.464;11.070;2024-02-16T02:38:26;2.97;;;2.33;;
4517;SDS011;2271;49.464;11.070;2024-02-16T02:40:52;3.00;;;2.30;;
4517;SDS011;2271;49.464;11.070;2024-02-16T02:43:17;2.70;;;2.50;;
4517;SDS011;2271;49.464;11.070;2024-02-16T02:45:44;4.20;;;2.80;;
4517;SDS011;2271;49.464;11.070;2024-02-16T02:48:10;3.13;;;2.30;;
4517;SDS011;2271;49.464;11.070;2024-02-16T02:50:35;3.20;;;2.83;;
4517;SDS011;2271;49.464;11.070;2024-02-16T02:53:01;2.30;;;2.10;;
4517;SDS011;2271;49.464;11.070;2024-02-16T02:55:27;4.53;;;2.40;;
4517;SDS011;2271;49.464;11.070;2024-02-16T02:57:52;2.53;;;2.20;;
4517;SDS011;2271;49.464;11.070;2024-02-16T03:00:18;5.70;;;2.20;;
4517;SDS011;2271;49.464;11.070;2024-02-16T03:02:44;6.63;;;2.43;;
4517;SDS011;2271;49.464;11.070;2024-02-16T03:05:09;2.83;;;2.07;;
4517;SDS011;2271;49.464;11.070;2024-02-16T03:07:36;3.03;;;2.23;;
4517;SDS011;2271;49.464;11.070;2024-02-16T03:10:02;3.23;;;2.57;;
4517;SDS011;2271;49.464;11.070;2024-02-16T03:12:28;5.60;;;2.43;;
4517;SDS011;2271;49.464;11.070;2024-02-16T03:14:54;3.90;;;2.97;;
4517;SDS011;2271;49.464;11.070;2024-02-16T03:17:20;4.30;;;2.73;;
4517;SDS011;2271;49.464;11.070;2024-02-16T03:19:45;5.93;;;3.10;;
4517;SDS011;2271;49.464;11.070;2024-02-16T03:22:11;4.03;;;2.20;;
4517;SDS011;2271;49.464;11.070;2024-02-16T03:24:37;3.53;;;3.13;;
4517;SDS011;2271;49.464;11.070;2024-02-16T03:27:03;6.53;;;2.97;;
4517;SDS011;2271;49.464;11.070;2024-02-16T03:29:29;4.40;;;2.53;;
4517;SDS011;2271;49.464;11.070;2024-02-16T03:31:55;5.07;;;2.77;;
4517;SDS011;2271;49.464;11.070;2024-02-16T03:34:21;3.40;;;2.77;;
4517;SDS011;2271;49.464;11.070;2024-02-16T03:36:46;7.63;;;3.00;;
4517;SDS011;2271;49.464;11.070;2024-02-16T03:39:13;5.07;;;2.57;;
4517;SDS011;2271;49.464;11.070;2024-02-16T03:41:38;2.53;;;2.20;;
4517;SDS011;2271;49.464;11.070;2024-02-16T03:44:04;5.60;;;2.30;;
4517;SDS011;2271;49.464;11.070;2024-02-16T03:46:30;5.33;;;2.70;;
4517;SDS011;2271;49.464;11.070;2024-02-16T03:48:56;3.43;;;2.30;;
4517;SDS011;2271;49.464;11.070;2024-02-16T03:51:22;3.97;;;2.20;;
4517;SDS011;2271;49.464;11.070;2024-02-16T03:53:47;3.63;;;2.67;;
4517;SDS011;2271;49.464;11.070;2024-02-16T03:56:22;2.53;;;2.23;;
4517;SDS011;2271;49.464;11.070;2024-02-16T03:58:48;6.30;;;2.57;;
4517;SDS011;2271;49.464;11.070;2024-02-16T04:01:13;3.30;;;2.10;;
4517;SDS011;2271;49.464;11.070;2024-02-16T04:03:39;4.50;;;2.57;;
4517;SDS011;2271;49.464;11.070;2024-02-16T04:06:05;6.07;;;2.40;;
4517;SDS011;2271;49.464;11.070;2024-02-16T04:08:30;3.20;;;2.40;;
4517;SDS011;2271;49.464;11.070;2024-02-16T04:10:56;7.23;;;2.40;;
4517;SDS011;2271;49.464;11.070;2024-02-16T04:13:22;2.93;;;2.63;;
4517;SDS011;2271;49.464;11.070;2024-02-16T04:15:47;4.40;;;2.73;;
4517;SDS011;2271;49.464;11.070;2024-02-16T04:18:13;3.90;;;2.80;;
4517;SDS011;2271;49.464;11.070;2024-02-16T04:20:38;5.47;;;2.97;;
4517;SDS011;2271;49.464;11.070;2024-02-16T04:23:06;4.93;;;2.80;;
4517;SDS011;2271;49.464;11.070;2024-02-16T04:25:31;3.60;;;2.73;;
4517;SDS011;2271;49.464;11.070;2024-02-16T04:27:57;3.70;;;2.50;;
4517;SDS011;2271;49.464;11.070;2024-02-16T04:30:22;4.87;;;3.07;;
4517;SDS011;2271;49.464;11.070;2024-02-16T04:32:48;4.53;;;3.00;;
4517;SDS011;2271;49.464;11.070;2024-02-16T04:35:14;5.43;;;3.10;;
4517;SDS011;2271;49.464;11.070;2024-02-16T04:37:40;7.23;;;3.83;;
4517;SDS011;2271;49.464;11.070;2024-02-16T04:40:06;4.83;;;3.23;;
4517;SDS011;2271;49.464;11.070;2024-02-16T04:42:32;4.67;;;3.70;;
4517;SDS011;2271;49.464;11.070;2024-02-16T04:44:58;5.63;;;3.30;;
4517;SDS011;2271;49.464;11.070;2024-02-16T04:47:27;5.33;;;3.60;;
4517;SDS011;2271;49.464;11.070;2024-02-16T04:49:53;5.50;;;3.63;;
4517;SDS011;2271;49.464;11.070;2024-02-16T04:52:18;4.17;;;3.50;;
4517;SDS011;2271;49.464;11.070;2024-02-16T04:54:44;5.47;;;3.23;;
4517;SDS011;2271;49.464;11.070;2024-02-16T04:57:09;4.13;;;3.73;;
4517;SDS011;2271;49.464;11.070;2024-02-16T04:59:35;6.30;;;4.00;;
4517;SDS011;2271;49.464;11.070;2024-02-16T05:02:01;3.73;;;3.43;;
4517;SDS011;2271;49.464;11.070;2024-02-16T05:04:28;5.47;;;4.30;;
4517;SDS011;2271;49.464;11.070;2024-02-16T05:06:54;3.80;;;3.40;;
4517;SDS011;2271;49.464;11.070;2024-02-16T05:09:22;7.43;;;4.20;;
4517;SDS011;2271;49.464;11.070;2024-02-16T05:11:49;5.17;;;3.47;;
4517;SDS011;2271;49.464;11.070;2024-02-16T05:14:16;6.03;;;4.63;;
4517;SDS011;2271;49.464;11.070;2024-02-16T05:16:45;6.37;;;4.43;;
4517;SDS011;2271;49.464;11.070;2024-02-16T05:19:12;6.80;;;4.10;;
4517;SDS011;2271;49.464;11.070;2024-02-16T05:21:38;6.60;;;4.10;;
4517;SDS011;2271;49.464;11.070;2024-02-16T05:24:03;6.13;;;4.03;;
4517;SDS011;2271;49.464;11.070;2024-02-16T05:26:29;4.63;;;4.03;;
4517;SDS011;2271;49.464;11.070;2024-02-16T05:28:55;8.00;;;5.10;;
4517;SDS011;2271;49.464;11.070;2024-02-16T05:31:21;6.57;;;4.60;;
4517;SDS011;2271;49.464;11.070;2024-02-16T05:33:50;7.60;;;4.70;;
4517;SDS011;2271;49.464;11.070;2024-02-16T05:36:25;5.03;;;4.07;;
4517;SDS011;2271;49.464;11.070;2024-02-16T05:38:55;7.70;;;4.57;;
4517;SDS011;2271;49.464;11.070;2024-02-16T05:41:21;5.60;;;4.50;;
4517;SDS011;2271;49.464;11.070;2024-02-16T05:43:47;6.53;;;4.57;;
4517;SDS011;2271;49.464;11.070;2024-02-16T05:46:14;4.50;;;4.10;;
4517;SDS011;2271;49.464;11.070;2024-02-16T05:48:40;9.90;;;5.60;;
4517;SDS011;2271;49.464;11.070;2024-02-16T05:51:07;7.03;;;5.10;;
4517;SDS011;2271;49.464;11.070;2024-02-16T05:53:33;11.97;;;6.43;;
4517;SDS011;2271;49.464;11.070;2024-02-16T05:55:59;6.80;;;5.27;;
4517;SDS011;2271;49.464;11.070;2024-02-16T05:58:25;5.43;;;4.67;;
4517;SDS011;2271;49.464;11.070;2024-02-16T06:00:51;6.13;;;4.97;;
4517;SDS011;2271;49.464;11.070;2024-02-16T06:03:17;6.33;;;5.57;;
4517;SDS011;2271;49.464;11.070;2024-02-16T06:05:43;8.13;;;5.77;;
4517;SDS011;2271;49.464;11.070;2024-02-16T06:08:11;8.20;;;4.97;;
4517;SDS011;2271;49.464;11.070;2024-02-16T06:10:38;8.60;;;4.90;;
4517;SDS011;2271;49.464;11.070;2024-02-16T06:13:04;10.33;;;4.67;;
4517;SDS011;2271;49.464;11.070;2024-02-16T06:15:31;7.13;;;4.77;;
4517;SDS011;2271;49.464;11.070;2024-02-16T06:17:58;7.30;;;4.60;;
4517;SDS011;2271;49.464;11.070;2024-02-16T06:20:25;6.70;;;5.13;;
4517;SDS011;2271;49.464;11.070;2024-02-16T06:22:51;10.13;;;5.17;;
4517;SDS011;2271;49.464;11.070;2024-02-16T06:25:17;7.57;;;4.93;;
4517;SDS011;2271;49.464;11.070;2024-02-16T06:27:43;5.70;;;5.03;;
4517;SDS011;2271;49.464;11.070;2024-02-16T06:30:09;6.60;;;5.30;;
4517;SDS011;2271;49.464;11.070;2024-02-16T06:32:38;5.87;;;4.67;;
4517;SDS011;2271;49.464;11.070;2024-02-16T06:35:05;9.43;;;5.70;;
4517;SDS011;2271;49.464;11.070;2024-02-16T06:37:32;11.73;;;5.33;;
4517;SDS011;2271;49.464;11.070;2024-02-16T06:39:58;10.47;;;5.57;;
4517;SDS011;2271;49.464;11.070;2024-02-16T06:42:23;8.10;;;5.77;;
4517;SDS011;2271;49.464;11.070;2024-02-16T06:44:49;7.73;;;5.60;;
4517;SDS011;2271;49.464;11.070;2024-02-16T06:47:15;9.50;;;5.50;;
4517;SDS011;2271;49.464;11.070;2024-02-16T06:49:40;6.60;;;5.60;;
4517;SDS011;2271;49.464;11.070;2024-02-16T06:52:06;5.83;;;5.20;;
4517;SDS011;2271;49.464;11.070;2024-02-16T06:54:32;8.67;;;6.00;;
4517;SDS011;2271;49.464;11.070;2024-02-16T06:56:58;7.67;;;5.70;;
4517;SDS011;2271;49.464;11.070;2024-02-16T06:59:23;6.07;;;4.70;;
4517;SDS011;2271;49.464;11.070;2024-02-16T07:01:49;12.03;;;6.53;;
4517;SDS011;2271;49.464;11.070;2024-02-16T07:04:14;7.33;;;5.63;;
4517;SDS011;2271;49.464;11.070;2024-02-16T07:06:40;9.10;;;5.80;;
4517;SDS011;2271;49.464;11.070;2024-02-16T07:09:06;6.87;;;5.13;;
4517;SDS011;2271;49.464;11.070;2024-02-16T07:11:31;6.77;;;5.63;;
4517;SDS011;2271;49.464;11.070;2024-02-16T07:13:59;9.83;;;5.63;;
4517;SDS011;2271;49.464;11.070;2024-02-16T07:16:27;6.53;;;5.70;;
4517;SDS011;2271;49.464;11.070;2024-02-16T07:18:53;6.77;;;5.60;;
4517;SDS011;2271;49.464;11.070;2024-02-16T07:21:18;9.50;;;6.07;;
4517;SDS011;2271;49.464;11.070;2024-02-16T07:23:45;10.70;;;5.90;;
4517;SDS011;2271;49.464;11.070;2024-02-16T07:26:11;7.03;;;6.07;;
4517;SDS011;2271;49.464;11.070;2024-02-16T07:28:38;10.47;;;6.70;;
4517;SDS011;2271;49.464;11.070;2024-02-16T07:31:03;9.60;;;6.20;;
4517;SDS011;2271;49.464;11.070;2024-02-16T07:33:29;10.47;;;5.90;;
4517;SDS011;2271;49.464;11.070;2024-02-16T07:35:55;9.13;;;5.90;;
4517;SDS011;2271;49.464;11.070;2024-02-16T07:38:21;8.70;;;6.20;;
4517;SDS011;2271;49.464;11.070;2024-02-16T07:40:47;9.97;;;7.00;;
4517;SDS011;2271;49.464;11.070;2024-02-16T07:43:13;9.70;;;6.60;;
4517;SDS011;2271;49.464;11.070;2024-02-16T07:45:39;7.73;;;5.63;;
4517;SDS011;2271;49.464;11.070;2024-02-16T07:48:05;7.80;;;6.30;;
4517;SDS011;2271;49.464;11.070;2024-02-16T07:50:31;8.80;;;6.27;;
4517;SDS011;2271;49.464;11.070;2024-02-16T07:52:57;9.97;;;6.47;;
4517;SDS011;2271;49.464;11.070;2024-02-16T07:55:23;9.07;;;5.83;;
4517;SDS011;2271;49.464;11.070;2024-02-16T07:57:49;9.70;;;6.03;;
4517;SDS011;2271;49.464;11.070;2024-02-16T08:00:15;7.43;;;6.33;;
4517;SDS011;2271;49.464;11.070;2024-02-16T08:02:41;12.53;;;8.23;;
4517;SDS011;2271;49.464;11.070;2024-02-16T08:05:10;14.90;;;10.07;;
4517;SDS011;2271;49.464;11.070;2024-02-16T08:07:37;24.37;;;14.40;;
4517;SDS011;2271;49.464;11.070;2024-02-16T08:10:03;11.10;;;7.57;;
4517;SDS011;2271;49.464;11.070;2024-02-16T08:12:29;14.10;;;8.97;;
4517;SDS011;2271;49.464;11.070;2024-02-16T08:14:56;36.17;;;18.50;;
4517;SDS011;2271;49.464;11.070;2024-02-16T08:17:23;18.67;;;9.47;;
4517;SDS011;2271;49.464;11.070;2024-02-16T08:19:55;19.43;;;8.80;;
4517;SDS011;2271;49.464;11.070;2024-02-16T08:22:20;12.37;;;8.07;;
4517;SDS011;2271;49.464;11.070;2024-02-16T08:24:47;14.83;;;8.07;;
4517;SDS011;2271;49.464;11.070;2024-02-16T08:27:14;14.00;;;9.70;;
4517;SDS011;2271;49.464;11.070;2024-02-16T08:29:40;18.27;;;11.03;;
4517;SDS011;2271;49.464;11.070;2024-02-16T08:32:06;11.10;;;8.03;;
4517;SDS011;2271;49.464;11.070;2024-02-16T08:34:33;19.23;;;11.83;;
4517;SDS011;2271;49.464;11.070;2024-02-16T08:37:02;17.80;;;9.67;;
4517;SDS011;2271;49.464;11.070;2024-02-16T08:39:31;9.30;;;7.23;;
4517;SDS011;2271;49.464;11.070;2024-02-16T08:41:59;8.60;;;6.80;;
4517;SDS011;2271;49.464;11.070;2024-02-16T08:44:25;11.87;;;7.23;;
4517;SDS011;2271;49.464;11.070;2024-02-16T08:46:51;15.30;;;10.20;;
4517;SDS011;2271;49.464;11.070;2024-02-16T08:49:18;13.07;;;8.60;;
4517;SDS011;2271;49.464;11.070;2024-02-16T08:51:44;14.30;;;9.57;;
4517;SDS011;2271;49.464;11.070;2024-02-16T08:54:09;9.70;;;7.27;;
4517;SDS011;2271;49.464;11.070;2024-02-16T08:56:35;16.43;;;8.97;;
4517;SDS011;2271;49.464;11.070;2024-02-16T08:59:01;10.90;;;9.07;;
4517;SDS011;2271;49.464;11.070;2024-02-16T09:01:45;7.60;;;6.73;;
4517;SDS011;2271;49.464;11.070;2024-02-16T09:04:11;7.50;;;6.43;;
4517;SDS011;2271;49.464;11.070;2024-02-16T09:06:37;9.30;;;6.35;;
4517;SDS011;2271;49.464;11.070;2024-02-16T09:09:04;9.93;;;6.72;;
4517;SDS011;2271;49.464;11.070;2024-02-16T09:11:29;10.15;;;7.00;;
4517;SDS011;2271;49.464;11.070;2024-02-16T09:13:55;9.38;;;6.65;;
4517;SDS011;2271;49.464;11.070;2024-02-16T09:16:21;8.90;;;6.57;;
4517;SDS011;2271;49.464;11.070;2024-02-16T09:18:47;10.80;;;6.63;;
4517;SDS011;2271;49.464;11.070;2024-02-16T09:21:15;8.63;;;7.03;;
4517;SDS011;2271;49.464;11.070;2024-02-16T09:23:41;9.73;;;7.30;;
4517;SDS011;2271;49.464;11.070;2024-02-16T09:26:07;7.78;;;6.70;;
4517;SDS011;2271;49.464;11.070;2024-02-16T09:28:38;6.82;;;5.78;;
4517;SDS011;2271;49.464;11.070;2024-02-16T09:31:07;8.88;;;7.10;;
4517;SDS011;2271;49.464;11.070;2024-02-16T09:33:33;9.80;;;7.50;;
4517;SDS011;2271;49.464;11.070;2024-02-16T09:36:00;10.05;;;6.40;;
4517;SDS011;2271;49.464;11.070;2024-02-16T09:38:26;9.90;;;6.63;;
4517;SDS011;2271;49.464;11.070;2024-02-16T09:40:51;10.20;;;6.10;;
4517;SDS011;2271;49.464;11.070;2024-02-16T09:43:27;7.18;;;5.93;;
4517;SDS011;2271;49.464;11.070;2024-02-16T09:45:54;7.22;;;6.43;;
4517;SDS011;2271;49.464;11.070;2024-02-16T09:48:25;12.77;;;7.25;;
4517;SDS011;2271;49.464;11.070;2024-02-16T09:50:53;8.32;;;6.70;;
4517;SDS011;2271;49.464;11.070;2024-02-16T09:53:20;7.93;;;6.72;;
4517;SDS011;2271;49.464;11.070;2024-02-16T09:55:49;10.27;;;6.03;;
4517;SDS011;2271;49.464;11.070;2024-02-16T09:58:15;6.53;;;5.72;;
4517;SDS011;2271;49.464;11.070;2024-02-16T10:00:50;8.45;;;5.72;;
4517;SDS011;2271;49.464;11.070;2024-02-16T10:03:27;8.85;;;6.32;;
4517;SDS011;2271;49.464;11.070;2024-02-16T10:06:07;7.10;;;5.93;;
4517;SDS011;2271;49.464;11.070;2024-02-16T10:08:34;7.03;;;4.93;;
4517;SDS011;2271;49.464;11.070;2024-02-16T10:11:11;9.30;;;6.18;;
4517;SDS011;2271;49.464;11.070;2024-02-16T10:13:39;9.43;;;6.22;;
4517;SDS011;2271;49.464;11.070;2024-02-16T10:16:09;11.48;;;6.43;;
4517;SDS011;2271;49.464;11.070;2024-02-16T10:18:37;8.35;;;6.25;;
4517;SDS011;2271;49.464;11.070;2024-02-16T10:21:03;10.23;;;6.15;;
4517;SDS011;2271;49.464;11.070;2024-02-16T10:23:29;6.75;;;5.32;;
4517;SDS011;2271;49.464;11.070;2024-02-16T10:25:54;8.32;;;5.55;;
4517;SDS011;2271;49.464;11.070;2024-02-16T10:28:20;7.43;;;6.05;;
4517;SDS011;2271;49.464;11.070;2024-02-16T10:30:52;6.95;;;5.03;;
4517;SDS011;2271;49.464;11.070;2024-02-16T10:33:23;7.82;;;5.70;;
4517;SDS011;2271;49.464;11.070;2024-02-16T10:35:49;12.98;;;5.97;;
4517;SDS011;2271;49.464;11.070;2024-02-16T10:38:16;7.65;;;5.65;;
4517;SDS011;2271;49.464;11.070;2024-02-16T10:40:43;8.27;;;5.75;;
4517;SDS011;2271;49.464;11.070;2024-02-16T10:43:11;8.75;;;6.10;;
4517;SDS011;2271;49.464;11.070;2024-02-16T10:45:38;9.57;;;5.90;;
4517;SDS011;2271;49.464;11.070;2024-02-16T10:48:05;10.52;;;6.25;;
4517;SDS011;2271;49.464;11.070;2024-02-16T10:50:32;7.40;;;5.57;;
4517;SDS011;2271;49.464;11.070;2024-02-16T10:53:00;6.28;;;4.55;;
4517;SDS011;2271;49.464;11.070;2024-02-16T10:55:31;7.47;;;5.38;;
4517;SDS011;2271;49.464;11.070;2024-02-16T10:57:58;9.25;;;5.85;;
4517;SDS011;2271;49.464;11.070;2024-02-16T11:00:25;7.65;;;5.82;;
4517;SDS011;2271;49.464;11.070;2024-02-16T11:02:54;7.68;;;5.43;;
4517;SDS011;2271;49.464;11.070;2024-02-16T11:05:33;6.40;;;4.57;;
4517;SDS011;2271;49.464;11.070;2024-02-16T11:08:16;5.03;;;4.40;;
4517;SDS011;2271;49.464;11.070;2024-02-16T11:10:56;9.23;;;4.50;;
4517;SDS011;2271;49.464;11.070;2024-02-16T11:13:26;6.00;;;4.72;;
4517;SDS011;2271;49.464;11.070;2024-02-16T11:16:00;7.65;;;5.35;;
4517;SDS011;2271;49.464;11.070;2024-02-16T11:18:31;4.53;;;4.10;;
4517;SDS011;2271;49.464;11.070;2024-02-16T11:21:01;7.07;;;5.35;;
4517;SDS011;2271;49.464;11.070;2024-02-16T11:23:31;6.05;;;4.93;;
4517;SDS011;2271;49.464;11.070;2024-02-16T11:26:03;6.57;;;5.07;;
4517;SDS011;2271;49.464;11.070;2024-02-16T11:28:33;8.05;;;5.50;;
4517;SDS011;2271;49.464;11.070;2024-02-16T11:31:02;6.60;;;4.88;;
4517;SDS011;2271;49.464;11.070;2024-02-16T11:33:29;7.50;;;5.45;;
4517;SDS011;2271;49.464;11.070;2024-02-16T11:38:20;9.60;;;5.88;;
4517;SDS011;2271;49.464;11.070;2024-02-16T11:41:19;7.85;;;5.88;;
4517;SDS011;2271;49.464;11.070;2024-02-16T11:43:38;9.30;;;5.90;;
4517;SDS011;2271;49.464;11.070;2024-02-16T11:46:13;11.20;;;6.28;;
4517;SDS011;2271;49.464;11.070;2024-02-16T11:48:41;6.00;;;5.22;;
4517;SDS011;2271;49.464;11.070;2024-02-16T11:51:07;7.97;;;6.50;;
4517;SDS011;2271;49.464;11.070;2024-02-16T11:53:33;8.60;;;5.65;;
4517;SDS011;2271;49.464;11.070;2024-02-16T11:55:59;7.68;;;6.32;;
4517;SDS011;2271;49.464;11.070;2024-02-16T11:58:25;9.15;;;6.00;;
4517;SDS011;2271;49.464;11.070;2024-02-16T12:00:51;10.05;;;6.70;;
4517;SDS011;2271;49.464;11.070;2024-02-16T12:03:20;11.15;;;7.10;;
4517;SDS011;2271;49.464;11.070;2024-02-16T12:05:50;8.73;;;6.35;;
4517;SDS011;2271;49.464;11.070;2024-02-16T12:08:17;11.45;;;6.03;;
4517;SDS011;2271;49.464;11.070;2024-02-16T12:10:44;7.75;;;5.97;;
4517;SDS011;2271;49.464;11.070;2024-02-16T12:13:09;11.88;;;6.70;;
4517;SDS011;2271;49.464;11.070;2024-02-16T12:15:37;9.73;;;6.00;;
4517;SDS011;2271;49.464;11.070;2024-02-16T12:18:03;8.18;;;4.65;;
4517;SDS011;2271;49.464;11.070;2024-02-16T12:20:29;7.75;;;6.03;;
4517;SDS011;2271;49.464;11.070;2024-02-16T12:22:56;7.55;;;6.28;;
4517;SDS011;2271;49.464;11.070;2024-02-16T12:25:24;8.57;;;5.78;;
4517;SDS011;2271;49.464;11.070;2024-02-16T12:27:50;7.55;;;5.40;;
4517;SDS011;2271;49.464;11.070;2024-02-16T12:30:16;10.18;;;5.97;;
4517;SDS011;2271;49.464;11.070;2024-02-16T12:32:41;12.27;;;6.43;;
4517;SDS011;2271;49.464;11.070;2024-02-16T12:35:07;8.88;;;5.97;;
4517;SDS011;2271;49.464;11.070;2024-02-16T12:37:33;8.27;;;6.20;;
4517;SDS011;2271;49.464;11.070;2024-02-16T12:40:00;7.65;;;5.47;;
4517;SDS011;2271;49.464;11.070;2024-02-16T12:42:26;7.50;;;5.93;;
4517;SDS011;2271;49.464;11.070;2024-02-16T12:44:52;8.00;;;4.75;;
4517;SDS011;2271;49.464;11.070;2024-02-16T12:47:18;6.78;;;5.47;;
4517;SDS011;2271;49.464;11.070;2024-02-16T12:49:43;9.10;;;5.93;;
4517;SDS011;2271;49.464;11.070;2024-02-16T12:52:09;5.90;;;5.25;;
4517;SDS011;2271;49.464;11.070;2024-02-16T12:54:35;6.00;;;5.15;;
4517;SDS011;2271;49.464;11.070;2024-02-16T12:57:00;6.55;;;4.75;;
4517;SDS011;2271;49.464;11.070;2024-02-16T12:59:26;7.57;;;4.40;;
4517;SDS011;2271;49.464;11.070;2024-02-16T13:01:51;7.00;;;5.05;;
4517;SDS011;2271;49.464;11.070;2024-02-16T13:04:17;8.25;;;5.32;;
4517;SDS011;2271;49.464;11.070;2024-02-16T13:06:46;5.65;;;4.57;;
4517;SDS011;2271;49.464;11.070;2024-02-16T13:09:12;6.60;;;5.28;;
4517;SDS011;2271;49.464;11.070;2024-02-16T13:11:37;7.70;;;4.80;;
4517;SDS011;2271;49.464;11.070;2024-02-16T13:14:04;7.82;;;5.18;;
4517;SDS011;2271;49.464;11.070;2024-02-16T13:16:30;8.13;;;4.53;;
4517;SDS011;2271;49.464;11.070;2024-02-16T13:18:56;5.15;;;4.60;;
4517;SDS011;2271;49.464;11.070;2024-02-16T13:21:21;5.30;;;4.63;;
4517;SDS011;2271;49.464;11.070;2024-02-16T13:23:47;12.55;;;5.53;;
4517;SDS011;2271;49.464;11.070;2024-02-16T13:26:13;6.25;;;5.43;;
4517;SDS011;2271;49.464;11.070;2024-02-16T13:28:38;7.07;;;5.57;;
4517;SDS011;2271;49.464;11.070;2024-02-16T13:31:04;7.63;;;6.03;;
4517;SDS011;2271;49.464;11.070;2024-02-16T13:33:30;7.03;;;5.32;;
4517;SDS011;2271;49.464;11.070;2024-02-16T13:35:55;7.40;;;5.15;;
4517;SDS011;2271;49.464;11.070;2024-02-16T13:38:21;7.75;;;5.30;;
4517;SDS011;2271;49.464;11.070;2024-02-16T13:40:46;6.25;;;4.85;;
4517;SDS011;2271;49.464;11.070;2024-02-16T13:43:14;6.57;;;5.68;;
4517;SDS011;2271;49.464;11.070;2024-02-16T13:45:50;12.13;;;6.72;;
4517;SDS011;2271;49.464;11.070;2024-02-16T13:48:17;9.85;;;6.38;;
4517;SDS011;2271;49.464;11.070;2024-02-16T13:50:47;7.22;;;5.45;;
4517;SDS011;2271;49.464;11.070;2024-02-16T13:53:13;9.05;;;6.00;;
4517;SDS011;2271;49.464;11.070;2024-02-16T13:55:40;10.93;;;6.00;;
4517;SDS011;2271;49.464;11.070;2024-02-16T13:58:06;12.02;;;5.70;;
4517;SDS011;2271;49.464;11.070;2024-02-16T14:00:32;2.75;;;2.08;;
4517;SDS011;2271;49.464;11.070;2024-02-16T14:02:58;4.00;;;2.72;;
4517;SDS011;2271;49.464;11.070;2024-02-16T14:05:23;7.00;;;4.95;;
4517;SDS011;2271;49.464;11.070;2024-02-16T14:07:50;5.70;;;4.35;;
4517;SDS011;2271;49.464;11.070;2024-02-16T14:10:16;6.30;;;4.80;;
4517;SDS011;2271;49.464;11.070;2024-02-16T14:12:44;7.28;;;5.30;;
4517;SDS011;2271;49.464;11.070;2024-02-16T14:15:11;10.07;;;6.30;;
4517;SDS011;2271;49.464;11.070;2024-02-16T14:17:40;8.90;;;5.93;;
4517;SDS011;2271;49.464;11.070;2024-02-16T14:20:07;6.45;;;4.63;;
4517;SDS011;2271;49.464;11.070;2024-02-16T14:22:32;10.18;;;6.57;;
4517;SDS011;2271;49.464;11.070;2024-02-16T14:24:59;7.82;;;6.38;;
4517;SDS011;2271;49.464;11.070;2024-02-16T14:27:24;9.95;;;5.78;;
4517;SDS011;2271;49.464;11.070;2024-02-16T14:29:50;8.90;;;5.88;;
4517;SDS011;2271;49.464;11.070;2024-02-16T14:32:16;8.00;;;5.15;;
4517;SDS011;2271;49.464;11.070;2024-02-16T14:34:42;7.40;;;5.95;;
4517;SDS011;2271;49.464;11.070;2024-02-16T14:37:08;7.55;;;6.47;;
4517;SDS011;2271;49.464;11.070;2024-02-16T14:39:34;13.88;;;6.15;;
4517;SDS011;2271;49.464;11.070;2024-02-16T14:42:00;7.28;;;5.53;;
4517;SDS011;2271;49.464;11.070;2024-02-16T14:44:26;8.30;;;5.75;;
4517;SDS011;2271;49.464;11.070;2024-02-16T14:46:51;7.93;;;5.78;;
4517;SDS011;2271;49.464;11.070;2024-02-16T14:49:17;10.60;;;6.03;;
4517;SDS011;2271;49.464;11.070;2024-02-16T14:51:46;7.25;;;6.15;;
4517;SDS011;2271;49.464;11.070;2024-02-16T14:54:12;14.05;;;6.65;;
4517;SDS011;2271;49.464;11.070;2024-02-16T14:56:38;6.93;;;5.95;;